createdAt,value
2022-09-11T00:00:07.486Z,101596.25
2022-09-11T00:02:42.233Z,101595.53
2022-09-11T00:05:12.245Z,101598.47
2022-09-11T00:07:41.988Z,101603.31
2022-09-11T00:10:12.610Z,101606.47
2022-09-11T00:12:43.821Z,101611.69
2022-09-11T00:15:14.101Z,101617.25
2022-09-11T00:17:47.442Z,101614.03
2022-09-11T00:20:17.533Z,101607.09
2022-09-11T00:22:50.292Z,101608.94
2022-09-11T00:25:20.272Z,101619.56
2022-09-11T00:27:51.326Z,101624.22
2022-09-11T00:30:22.075Z,101610.94
2022-09-11T00:32:52.257Z,101617.38
2022-09-11T00:35:25.770Z,101611.94
2022-09-11T00:37:58.230Z,101623.72
2022-09-11T00:40:28.668Z,101628.09
2022-09-11T00:42:59.307Z,101635.25
2022-09-11T00:45:30.188Z,101637.69
2022-09-11T00:48:02.014Z,101641.38
2022-09-11T00:50:35.826Z,101640.16
2022-09-11T00:53:11.142Z,101643.72
2022-09-11T00:55:48.895Z,101645.09
2022-09-11T00:58:23.435Z,101655.19
2022-09-11T01:00:57.185Z,101665.78
2022-09-11T01:03:28.337Z,101663.09
2022-09-11T01:06:00.120Z,101670.91
2022-09-11T01:08:32.700Z,101673.41
2022-09-11T01:11:26.041Z,101663.00
2022-09-11T01:14:23.573Z,101673.66
2022-09-11T01:17:02.820Z,101675.06
2022-09-11T01:20:01.407Z,101677.69
2022-09-11T01:23:04.042Z,101679.16
2022-09-11T01:25:56.546Z,101683.16
2022-09-11T01:28:47.759Z,101688.34
2022-09-11T01:31:21.873Z,101687.75
2022-09-11T01:34:25.185Z,101697.69
2022-09-11T01:37:02.507Z,101699.53
2022-09-11T01:39:42.766Z,101697.44
2022-09-11T01:42:22.037Z,101702.00
2022-09-11T01:44:56.180Z,101708.03
2022-09-11T01:47:29.862Z,101701.91
2022-09-11T01:50:11.139Z,101707.38
2022-09-11T01:52:54.866Z,101694.41
2022-09-11T01:55:31.394Z,101701.91
2022-09-11T01:58:13.746Z,101706.22
2022-09-11T02:00:50.911Z,101685.47
2022-09-11T02:03:29.465Z,101715.25
2022-09-11T02:06:08.950Z,101706.34
2022-09-11T02:08:43.467Z,101712.50
2022-09-11T02:11:16.042Z,101685.63
2022-09-11T02:14:03.964Z,101707.94
2022-09-11T02:16:46.517Z,101707.19
2022-09-11T02:19:19.408Z,101705.41
2022-09-11T02:21:52.365Z,101702.69
2022-09-11T02:24:24.069Z,101696.97
2022-09-11T02:26:59.616Z,101695.91
2022-09-11T02:29:31.201Z,101694.41
2022-09-11T02:32:02.440Z,101680.69
2022-09-11T02:34:37.962Z,101705.41
2022-09-11T02:37:27.346Z,101700.59
2022-09-11T02:40:16.163Z,101698.72
2022-09-11T02:42:55.348Z,101699.72
2022-09-11T02:45:36.790Z,101666.91
2022-09-11T02:48:42.235Z,101690.88
2022-09-11T02:51:45.871Z,101693.94
2022-09-11T02:54:54.719Z,101692.63
2022-09-11T02:57:36.605Z,101693.25
2022-09-11T03:00:09.615Z,101689.59
2022-09-11T03:02:44.176Z,101701.03
2022-09-11T03:05:14.663Z,101695.81
2022-09-11T03:07:45.106Z,101695.81
2022-09-11T03:10:15.242Z,101672.41
2022-09-11T03:12:46.562Z,101687.06
2022-09-11T03:15:18.436Z,101684.97
2022-09-11T03:17:49.442Z,101680.47
2022-09-11T03:20:20.455Z,101675.31
2022-09-11T03:22:50.893Z,101677.59
2022-09-11T03:25:21.924Z,101671.44
2022-09-11T03:27:56.183Z,101661.13
2022-09-11T03:30:25.860Z,101670.34
2022-09-11T03:32:55.648Z,101664.66
2022-09-11T03:35:27.642Z,101659.59
2022-09-11T03:37:58.697Z,101661.56
2022-09-11T03:40:29.410Z,101661.84
2022-09-11T03:43:00.707Z,101649.81
2022-09-11T03:45:30.811Z,101657.69
2022-09-11T03:48:00.728Z,101663.28
2022-09-11T03:50:31.240Z,101654.84
2022-09-11T03:53:01.754Z,101659.19
2022-09-11T03:55:36.207Z,101649.88
2022-09-11T03:58:10.786Z,101655.53
2022-09-11T04:00:45.355Z,101647.88
2022-09-11T04:03:17.003Z,101641.34
2022-09-11T04:06:07.284Z,101639.69
2022-09-11T04:08:41.183Z,101637.25
2022-09-11T04:11:13.739Z,101631.84
2022-09-11T04:13:44.847Z,101617.09
2022-09-11T04:16:21.902Z,101612.75
2022-09-11T04:18:55.422Z,101606.41
2022-09-11T04:21:28.499Z,101605.81
2022-09-11T04:24:01.225Z,101594.25
2022-09-11T04:26:34.467Z,101590.97
2022-09-11T04:29:24.297Z,101578.88
2022-09-11T04:31:57.364Z,101582.97
2022-09-11T04:34:31.122Z,101573.53
2022-09-11T04:37:02.071Z,101570.53
2022-09-11T04:39:33.321Z,101561.34
2022-09-11T04:42:05.913Z,101558.19
2022-09-11T04:44:37.154Z,101569.84
2022-09-11T04:47:07.753Z,101549.31
2022-09-11T04:49:37.823Z,101550.66
2022-09-11T04:52:08.471Z,101550.91
2022-09-11T04:54:38.549Z,101557.22
2022-09-11T04:57:11.779Z,101557.97
2022-09-11T04:59:41.862Z,101532.41
2022-09-11T05:02:16.184Z,101561.09
2022-09-11T05:04:49.490Z,101555.31
2022-09-11T05:07:20.107Z,101557.31
2022-09-11T05:09:55.719Z,101556.00
2022-09-11T05:12:26.268Z,101560.66
2022-09-11T05:14:56.291Z,101556.16
2022-09-11T05:17:26.327Z,101557.50
2022-09-11T05:19:57.129Z,101552.69
2022-09-11T05:22:27.594Z,101557.44
2022-09-11T05:25:00.327Z,101545.81
2022-09-11T05:27:32.561Z,101540.91
2022-09-11T05:30:03.782Z,101538.72
2022-09-11T05:32:33.934Z,101541.16
2022-09-11T05:35:05.343Z,101534.63
2022-09-11T05:37:35.495Z,101528.78
2022-09-11T05:40:06.470Z,101506.22
2022-09-11T05:42:36.418Z,101512.09
2022-09-11T05:45:07.364Z,101530.31
2022-09-11T05:47:37.444Z,101525.66
2022-09-11T05:50:08.407Z,101519.13
2022-09-11T05:52:39.387Z,101520.00
2022-09-11T05:55:10.683Z,101523.03
2022-09-11T05:57:41.727Z,101526.34
2022-09-11T06:00:14.420Z,101513.34
2022-09-11T06:02:55.387Z,101520.88
2022-09-11T06:05:29.839Z,101521.13
2022-09-11T06:08:02.628Z,101517.00
2022-09-11T06:10:32.974Z,101489.66
2022-09-11T06:13:03.934Z,101509.88
2022-09-11T06:15:46.491Z,101476.78
2022-09-11T06:18:18.860Z,101487.63
2022-09-11T06:21:01.552Z,101498.28
2022-09-11T06:23:38.399Z,101477.94
2022-09-11T06:26:17.366Z,101500.88
2022-09-11T06:28:50.147Z,101496.66
2022-09-11T06:31:23.290Z,101501.00
2022-09-11T06:33:55.843Z,101492.63
2022-09-11T06:36:28.262Z,101491.47
2022-09-11T06:39:00.717Z,101495.69
2022-09-11T06:41:31.922Z,101498.84
2022-09-11T06:44:08.182Z,101487.63
2022-09-11T06:46:40.803Z,101499.53
2022-09-11T06:49:12.959Z,101482.16
2022-09-11T06:52:01.366Z,101487.25
2022-09-11T06:54:33.395Z,101476.28
2022-09-11T06:57:08.628Z,101482.28
2022-09-11T06:59:39.817Z,101495.41
2022-09-11T07:02:11.453Z,101491.41
2022-09-11T07:04:41.675Z,101496.28
2022-09-11T07:07:13.508Z,101492.28
2022-09-11T07:09:44.587Z,101503.50
2022-09-11T07:12:14.892Z,101502.84
2022-09-11T07:14:47.567Z,101502.25
2022-09-11T07:17:20.026Z,101516.66
2022-09-11T07:19:55.922Z,101510.88
2022-09-11T07:22:26.363Z,101511.56
2022-09-11T07:24:56.943Z,101513.94
2022-09-11T07:27:29.303Z,101514.44
2022-09-11T07:30:02.598Z,101514.13
2022-09-11T07:32:36.047Z,101517.53
2022-09-11T07:35:07.388Z,101523.66
2022-09-11T07:37:39.837Z,101523.16
2022-09-11T07:40:10.529Z,101526.63
2022-09-11T07:42:40.587Z,101527.09
2022-09-11T07:45:11.502Z,101522.53
2022-09-11T07:47:42.832Z,101528.97
2022-09-11T07:50:12.901Z,101529.13
2022-09-11T07:52:46.364Z,101534.66
2022-09-11T07:55:16.811Z,101549.97
2022-09-11T07:57:48.274Z,101552.00
2022-09-11T08:00:18.453Z,101548.06
2022-09-11T08:02:54.824Z,101531.13
2022-09-11T08:05:34.039Z,101545.47
2022-09-11T08:08:05.778Z,101552.53
2022-09-11T08:10:40.890Z,101554.59
2022-09-11T08:13:12.755Z,101537.28
2022-09-11T08:15:52.083Z,101560.84
2022-09-11T08:18:23.031Z,101555.66
2022-09-11T08:20:53.119Z,101545.69
2022-09-11T08:23:23.565Z,101545.00
2022-09-11T08:25:55.403Z,101563.34
2022-09-11T08:28:29.030Z,101565.00
2022-09-11T08:31:06.582Z,101562.09
2022-09-11T08:33:38.083Z,101570.50
2022-09-11T08:36:10.944Z,101580.34
2022-09-11T08:38:41.742Z,101573.56
2022-09-11T08:41:20.741Z,101575.00
2022-09-11T08:44:25.292Z,101571.22
2022-09-11T08:47:09.179Z,101569.69
2022-09-11T08:49:52.827Z,101566.47
2022-09-11T08:52:24.887Z,101571.50
2022-09-11T08:55:00.622Z,101576.81
2022-09-11T08:57:48.310Z,101571.81
2022-09-11T09:00:22.936Z,101576.47
2022-09-11T09:03:09.863Z,101568.88
2022-09-11T09:05:57.867Z,101573.22
2022-09-11T09:09:02.381Z,101569.44
2022-09-11T09:11:46.704Z,101571.06
2022-09-11T09:14:58.098Z,101571.91
2022-09-11T09:17:54.999Z,101581.63
2022-09-11T09:20:33.155Z,101586.09
2022-09-11T09:23:09.518Z,101590.22
2022-09-11T09:25:44.069Z,101580.22
2022-09-11T09:28:44.489Z,101584.59
2022-09-11T09:31:19.210Z,101597.81
2022-09-11T09:34:07.082Z,101590.69
2022-09-11T09:36:40.483Z,101597.09
2022-09-11T09:39:17.471Z,101595.88
2022-09-11T09:42:09.598Z,101595.66
2022-09-11T09:45:02.167Z,101595.47
2022-09-11T09:47:32.340Z,101604.91
2022-09-11T09:50:02.273Z,101598.50
2022-09-11T09:52:37.191Z,101607.47
2022-09-11T09:55:16.635Z,101608.72
2022-09-11T09:57:47.280Z,101602.91
2022-09-11T10:00:23.448Z,101603.31
2022-09-11T10:02:57.643Z,101614.03
2022-09-11T10:05:34.285Z,101612.38
2022-09-11T10:08:07.504Z,101617.09
2022-09-11T10:10:39.311Z,101623.97
2022-09-11T10:13:19.585Z,101628.38
2022-09-11T10:15:54.836Z,101620.03
2022-09-11T10:18:34.299Z,101628.81
2022-09-11T10:21:23.916Z,101625.78
2022-09-11T10:24:02.185Z,101622.59
2022-09-11T10:26:36.690Z,101637.66
2022-09-11T10:29:13.055Z,101631.84
2022-09-11T10:31:51.387Z,101648.53
2022-09-11T10:34:24.110Z,101653.00
2022-09-11T10:37:01.794Z,101651.34
2022-09-11T10:39:36.351Z,101656.66
2022-09-11T10:42:18.097Z,101661.28
2022-09-11T10:44:51.027Z,101652.19
2022-09-11T10:47:27.026Z,101658.34
2022-09-11T10:50:23.783Z,101665.28
2022-09-11T10:52:59.887Z,101661.22
2022-09-11T10:55:36.605Z,101676.09
2022-09-11T10:58:23.175Z,101673.16
2022-09-11T11:00:54.079Z,101668.66
2022-09-11T11:03:27.030Z,101668.97
2022-09-11T11:06:09.223Z,101662.97
2022-09-11T11:09:09.630Z,101663.75
2022-09-11T11:12:00.750Z,101665.97
2022-09-11T11:14:38.934Z,101668.97
2022-09-11T11:17:30.427Z,101674.97
2022-09-11T11:20:08.504Z,101682.22
2022-09-11T11:23:06.962Z,101688.84
2022-09-11T11:25:55.270Z,101702.63
2022-09-11T11:28:59.674Z,101686.50
2022-09-11T11:31:45.335Z,101666.59
2022-09-11T11:34:49.705Z,101704.75
2022-09-11T11:37:26.418Z,101708.38
2022-09-11T11:40:36.279Z,101718.84
2022-09-11T11:43:18.651Z,101723.38
2022-09-11T11:45:58.953Z,101732.59
2022-09-11T11:48:42.477Z,101742.28
2022-09-11T11:51:15.302Z,101731.09
2022-09-11T11:53:50.838Z,101729.19
2022-09-11T11:56:35.627Z,101735.50
2022-09-11T11:59:19.338Z,101739.53
2022-09-11T12:02:37.729Z,101739.19
2022-09-11T12:05:18.340Z,101731.25
2022-09-11T12:07:49.345Z,101735.44
2022-09-11T12:10:28.419Z,101742.78
2022-09-11T12:13:03.096Z,101742.66
2022-09-11T12:15:35.731Z,101728.31
2022-09-11T12:18:13.119Z,101726.19
2022-09-11T12:20:47.450Z,101728.75
2022-09-11T12:23:34.980Z,101715.19
2022-09-11T12:26:10.758Z,101723.72
2022-09-11T12:28:42.140Z,101718.91
2022-09-11T12:31:14.997Z,101724.81
2022-09-11T12:33:51.613Z,101710.34
2022-09-11T12:36:27.455Z,101719.72
2022-09-11T12:39:32.300Z,101714.75
2022-09-11T12:42:26.988Z,101718.84
2022-09-11T12:45:05.883Z,101708.94
2022-09-11T12:47:43.794Z,101694.59
2022-09-11T12:50:15.461Z,101691.13
2022-09-11T12:52:45.385Z,101689.94
2022-09-11T12:55:31.409Z,101702.72
2022-09-11T12:58:04.920Z,101694.59
2022-09-11T13:00:40.224Z,101693.84
2022-09-11T13:03:21.274Z,101689.44
2022-09-11T13:06:14.905Z,101680.13
2022-09-11T13:09:01.134Z,101679.47
2022-09-11T13:11:45.988Z,101678.34
2022-09-11T13:14:29.621Z,101678.34
2022-09-11T13:17:26.840Z,101680.53
2022-09-11T13:20:16.442Z,101664.16
2022-09-11T13:22:48.916Z,101672.59
2022-09-11T13:25:23.902Z,101674.56
2022-09-11T13:28:02.691Z,101672.13
2022-09-11T13:30:32.704Z,101671.63
2022-09-11T13:33:09.905Z,101678.66
2022-09-11T13:35:41.446Z,101665.41
2022-09-11T13:38:25.358Z,101662.19
2022-09-11T13:41:14.827Z,101651.09
2022-09-11T13:43:50.095Z,101655.31
2022-09-11T13:46:33.663Z,101626.19
2022-09-11T13:49:13.109Z,101641.38
2022-09-11T13:51:50.035Z,101641.66
2022-09-11T13:54:31.303Z,101648.75
2022-09-11T13:57:04.190Z,101647.06
2022-09-11T13:59:48.217Z,101647.09
2022-09-11T14:02:36.559Z,101635.19
2022-09-11T14:05:27.806Z,101625.75
2022-09-11T14:07:57.754Z,101633.13
2022-09-11T14:10:48.226Z,101637.75
2022-09-11T14:13:47.548Z,101633.41
2022-09-11T14:16:18.028Z,101630.81
2022-09-11T14:19:03.613Z,101645.56
2022-09-11T14:21:35.532Z,101628.38
2022-09-11T14:24:25.667Z,101624.19
2022-09-11T14:26:59.696Z,101618.06
2022-09-11T14:29:32.761Z,101628.19
2022-09-11T14:32:24.451Z,101617.16
2022-09-11T14:34:54.915Z,101616.16
2022-09-11T14:37:27.426Z,101616.25
2022-09-11T14:40:05.791Z,101603.50
2022-09-11T14:42:38.118Z,101597.22
2022-09-11T14:45:19.231Z,101598.47
2022-09-11T14:47:49.453Z,101579.63
2022-09-11T14:50:20.026Z,101569.31
2022-09-11T14:52:50.108Z,101570.44
2022-09-11T14:55:21.915Z,101559.56
2022-09-11T14:57:51.986Z,101550.78
2022-09-11T15:00:22.794Z,101560.72
2022-09-11T15:02:53.273Z,101548.34
2022-09-11T15:05:25.785Z,101539.16
2022-09-11T15:07:55.859Z,101538.88
2022-09-11T15:10:26.902Z,101529.50
2022-09-11T15:12:59.793Z,101518.94
2022-09-11T15:15:32.597Z,101503.63
2022-09-11T15:18:02.810Z,101490.53
2022-09-11T15:20:33.366Z,101481.09
2022-09-11T15:23:04.205Z,101474.25
2022-09-11T15:25:34.848Z,101469.53
2022-09-11T15:28:05.169Z,101465.88
2022-09-11T15:30:35.636Z,101454.41
2022-09-11T15:33:06.414Z,101452.59
2022-09-11T15:35:36.981Z,101447.31
2022-09-11T15:38:07.471Z,101433.47
2022-09-11T15:40:37.954Z,101420.75
2022-09-11T15:43:08.037Z,101414.22
2022-09-11T15:45:44.604Z,101415.72
2022-09-11T15:48:18.531Z,101401.13
2022-09-11T15:51:01.497Z,101405.47
2022-09-11T15:53:32.483Z,101386.28
2022-09-11T15:56:08.101Z,101369.28
2022-09-11T15:58:40.967Z,101370.41
2022-09-11T16:01:22.568Z,101372.34
2022-09-11T16:03:58.026Z,101364.63
2022-09-11T16:06:31.846Z,101361.63
2022-09-11T16:09:05.307Z,101361.59
2022-09-11T16:11:37.815Z,101355.25
2022-09-11T16:14:08.157Z,101332.50
2022-09-11T16:16:38.797Z,101329.00
2022-09-11T16:19:08.824Z,101315.56
2022-09-11T16:21:39.307Z,101318.50
2022-09-11T16:24:09.316Z,101313.06
2022-09-11T16:26:40.014Z,101316.38
2022-09-11T16:29:12.726Z,101309.00
2022-09-11T16:31:44.022Z,101290.66
2022-09-11T16:34:14.361Z,101296.63
2022-09-11T16:36:45.494Z,101293.53
2022-09-11T16:39:20.166Z,101294.84
2022-09-11T16:41:50.947Z,101308.31
2022-09-11T16:44:21.076Z,101295.19
2022-09-11T16:46:51.534Z,101278.66
2022-09-11T16:49:21.879Z,101269.09
2022-09-11T16:51:53.178Z,101271.44
2022-09-11T16:54:23.242Z,101262.63
2022-09-11T16:56:53.004Z,101253.44
2022-09-11T16:59:23.958Z,101233.81
2022-09-11T17:01:58.433Z,101235.34
2022-09-11T17:04:29.595Z,101233.38
2022-09-11T17:06:59.879Z,101234.91
2022-09-11T17:09:34.992Z,101229.84
2022-09-11T17:12:05.046Z,101210.88
2022-09-11T17:14:37.735Z,101240.47
2022-09-11T17:17:08.138Z,101232.75
2022-09-11T17:19:38.696Z,101218.25
2022-09-11T17:22:09.770Z,101206.16
2022-09-11T17:24:40.766Z,101200.38
2022-09-11T17:27:10.866Z,101191.09
2022-09-11T17:29:44.452Z,101184.03
2022-09-11T17:32:28.175Z,101178.75
2022-09-11T17:35:00.000Z,101188.66
2022-09-11T17:37:30.342Z,101196.22
2022-09-11T17:40:00.389Z,101182.44
2022-09-11T17:42:31.398Z,101220.28
2022-09-11T17:45:02.615Z,101210.97
2022-09-11T17:47:34.763Z,101207.53
2022-09-11T17:50:05.056Z,101209.63
2022-09-11T17:52:37.911Z,101203.53
2022-09-11T17:55:10.398Z,101192.19
2022-09-11T17:57:41.841Z,101196.84
2022-09-11T18:00:12.715Z,101185.28
2022-09-11T18:02:43.702Z,101181.59
2022-09-11T18:05:13.759Z,101174.44
2022-09-11T18:07:44.137Z,101162.84
2022-09-11T18:10:14.010Z,101162.22
2022-09-11T18:12:44.373Z,101156.31
2022-09-11T18:15:15.101Z,101167.53
2022-09-11T18:17:48.839Z,101157.53
2022-09-11T18:20:18.942Z,101157.56
2022-09-11T18:22:49.753Z,101168.66
2022-09-11T18:25:24.341Z,101163.53
2022-09-11T18:27:55.886Z,101165.22
2022-09-11T18:30:26.491Z,101162.13
2022-09-11T18:32:56.787Z,101146.38
2022-09-11T18:35:26.311Z,101134.00
2022-09-11T18:37:56.163Z,101127.44
2022-09-11T18:40:26.641Z,101127.50
2022-09-11T18:42:56.822Z,101131.19
2022-09-11T18:45:30.063Z,101124.78
2022-09-11T18:48:01.939Z,101130.59
2022-09-11T18:50:32.610Z,101134.56
2022-09-11T18:53:02.555Z,101134.19
2022-09-11T18:55:32.920Z,101133.34
2022-09-11T18:58:02.854Z,101131.63
2022-09-11T19:00:33.601Z,101108.50
2022-09-11T19:03:03.598Z,101103.91
2022-09-11T19:05:33.934Z,101103.03
2022-09-11T19:08:04.885Z,101081.47
2022-09-11T19:10:36.126Z,101068.44
2022-09-11T19:13:06.126Z,101076.00
2022-09-11T19:15:36.537Z,101100.09
2022-09-11T19:18:06.779Z,101109.09
2022-09-11T19:20:37.331Z,101111.22
2022-09-11T19:23:07.275Z,101090.06
2022-09-11T19:25:37.247Z,101045.69
2022-09-11T19:28:10.103Z,101074.69
2022-09-11T19:30:43.058Z,101081.38
2022-09-11T19:33:14.006Z,101095.03
2022-09-11T19:35:43.966Z,101093.56
2022-09-11T19:38:14.261Z,101086.91
2022-09-11T19:40:44.101Z,101068.03
2022-09-11T19:43:17.733Z,101052.34
2022-09-11T19:45:47.767Z,101050.31
2022-09-11T19:48:19.007Z,101050.78
2022-09-11T19:50:49.186Z,101053.47
2022-09-11T19:53:19.622Z,101042.59
2022-09-11T19:55:56.191Z,101038.16
2022-09-11T19:58:29.857Z,101034.97
2022-09-11T20:01:00.523Z,101036.00
2022-09-11T20:03:31.658Z,101034.97
2022-09-11T20:06:01.671Z,101028.44
2022-09-11T20:08:32.160Z,101031.41
2022-09-11T20:11:05.517Z,101026.09
2022-09-11T20:13:38.934Z,101005.66
2022-09-11T20:16:17.802Z,100998.50
2022-09-11T20:18:48.614Z,100989.13
2022-09-11T20:21:18.904Z,100979.81
2022-09-11T20:23:49.344Z,100962.59
2022-09-11T20:26:24.870Z,100969.09
2022-09-11T20:28:57.717Z,100975.94
2022-09-11T20:31:33.294Z,100988.09
2022-09-11T20:34:04.207Z,101002.78
2022-09-11T20:36:34.420Z,100980.72
2022-09-11T20:39:05.297Z,100984.50
2022-09-11T20:41:36.915Z,101000.19
2022-09-11T20:44:07.299Z,101004.88
2022-09-11T20:46:37.179Z,101013.19
2022-09-11T20:49:07.707Z,101018.50
2022-09-11T20:51:38.154Z,101017.59
2022-09-11T20:54:08.567Z,101009.75
2022-09-11T20:56:38.602Z,101014.69
2022-09-11T20:59:09.215Z,101054.25
2022-09-11T21:01:39.286Z,101057.38
2022-09-11T21:04:09.670Z,101064.31
2022-09-11T21:06:41.635Z,101082.66
2022-09-11T21:09:13.383Z,101091.16
2022-09-11T21:11:44.071Z,101106.75
2022-09-11T21:14:16.547Z,101094.50
2022-09-11T21:16:46.544Z,101101.47
2022-09-11T21:19:16.454Z,101106.31
2022-09-11T21:21:49.305Z,101097.56
2022-09-11T21:24:19.770Z,101089.75
2022-09-11T21:26:49.803Z,101092.16
2022-09-11T21:29:19.768Z,101099.13
2022-09-11T21:31:49.538Z,101115.75
2022-09-11T21:34:19.746Z,101123.13
2022-09-11T21:36:50.488Z,101129.59
2022-09-11T21:39:21.558Z,101116.19
2022-09-11T21:41:52.415Z,101118.44
2022-09-11T21:44:23.330Z,101124.03
2022-09-11T21:46:53.628Z,101115.22
2022-09-11T21:49:23.682Z,101109.09
2022-09-11T21:51:53.567Z,101103.81
2022-09-11T21:54:23.702Z,101096.00
2022-09-11T21:56:54.029Z,101084.00
2022-09-11T21:59:24.569Z,101082.31
2022-09-11T22:01:55.058Z,101066.78
2022-09-11T22:04:27.681Z,101086.06
2022-09-11T22:06:58.010Z,101091.59
2022-09-11T22:09:29.837Z,101102.19
2022-09-11T22:12:00.231Z,101115.72
2022-09-11T22:14:30.107Z,101121.19
2022-09-11T22:16:59.894Z,101109.34
2022-09-11T22:19:30.057Z,101138.91
2022-09-11T22:21:59.579Z,101139.72
2022-09-11T22:24:29.931Z,101139.78
2022-09-11T22:26:59.915Z,101131.75
2022-09-11T22:29:30.278Z,101119.88
2022-09-11T22:32:00.043Z,101126.44
2022-09-11T22:34:30.532Z,101121.75
2022-09-11T22:37:00.444Z,101105.81
2022-09-11T22:39:32.914Z,101101.44
2022-09-11T22:42:02.853Z,101085.41
2022-09-11T22:44:33.244Z,101077.63
2022-09-11T22:47:03.184Z,101072.16
2022-09-11T22:49:33.063Z,101068.53
2022-09-11T22:52:02.936Z,101073.84
2022-09-11T22:54:33.054Z,101091.22
2022-09-11T22:57:02.875Z,101088.78
2022-09-11T22:59:32.551Z,101086.03
2022-09-11T23:02:02.655Z,101103.75
2022-09-11T23:04:33.053Z,101132.56
2022-09-11T23:07:18.893Z,101140.25
2022-09-11T23:09:50.821Z,101129.56
2022-09-11T23:12:22.030Z,101118.13
2022-09-11T23:14:52.597Z,101117.44
2022-09-11T23:17:22.591Z,101086.03
2022-09-11T23:19:52.971Z,101072.41
2022-09-11T23:22:23.343Z,101070.66
2022-09-11T23:24:53.828Z,101052.53
2022-09-11T23:27:23.892Z,101046.34
2022-09-11T23:29:54.241Z,101089.41
2022-09-11T23:32:23.999Z,101117.50
2022-09-11T23:34:54.425Z,101132.19
2022-09-11T23:37:24.637Z,101131.44
2022-09-11T23:39:55.149Z,101133.63
2022-09-11T23:42:25.067Z,101141.84
2022-09-11T23:44:55.861Z,101154.94
2022-09-11T23:47:25.813Z,101144.72
2022-09-11T23:49:55.771Z,101141.50
2022-09-11T23:52:25.916Z,101134.63
2022-09-11T23:54:56.366Z,101109.41
2022-09-11T23:57:26.608Z,101082.47
2022-09-11T23:59:57.027Z,101080.66
